Time;durP1;ratioP1;P1;durP2;ratioP2;P2;SDS_P1;SDS_P2;PMS_P1;PMS_P2;Temp;Humidity;BMP_temperature;BMP_pressure;BME280_temperature;BME280_humidity;BME280_pressure;Samples;Min_cycle;Max_cycle;Signal;HPM_P1;HPM_P2
2023/05/10 00:00:49;;;;;;;23.30;17.40;;;;;;;-140.66;100.00;55571.53;5082312;28;20384;-71
2023/05/10 00:03:34;;;;;;;24.35;16.95;;;;;;;-140.66;100.00;55571.53;5096980;28;20016;-71
2023/05/10 00:06:20;;;;;;;23.02;16.35;;;;;;;-140.66;100.00;55571.53;5096936;28;20020;-71
2023/05/10 00:09:06;;;;;;;22.83;15.23;;;;;;;-140.66;100.00;55571.53;5097416;28;20082;-71
2023/05/10 00:11:52;;;;;;;20.88;15.68;;;;;;;-140.66;100.00;55571.53;5096737;28;20119;-71
2023/05/10 00:14:37;;;;;;;20.90;15.75;;;;;;;-140.66;100.00;55571.53;5097612;28;20096;-71
2023/05/10 00:17:23;;;;;;;20.55;14.98;;;;;;;-140.66;100.00;55571.53;5097208;28;20024;-71
2023/05/10 00:20:10;;;;;;;24.20;15.02;;;;;;;-140.66;100.00;55571.53;5095444;28;20028;-71
2023/05/10 00:22:55;;;;;;;19.40;14.30;;;;;;;-140.66;100.00;55571.53;5096156;28;20028;-72
2023/05/10 00:25:41;;;;;;;19.83;13.45;;;;;;;-140.66;100.00;55571.53;5096328;28;20127;-71
2023/05/10 00:28:28;;;;;;;22.38;13.82;;;;;;;-140.66;100.00;55571.53;5096351;28;20082;-71
2023/05/10 00:31:14;;;;;;;20.98;14.73;;;;;;;-140.66;100.00;55571.53;5096303;28;20028;-71
2023/05/10 00:34:00;;;;;;;20.40;15.38;;;;;;;-140.66;100.00;55571.53;5096094;28;20028;-71
2023/05/10 00:36:45;;;;;;;17.92;13.73;;;;;;;-140.66;100.00;55571.53;5097012;28;20024;-71
2023/05/10 00:39:31;;;;;;;19.75;13.98;;;;;;;-140.66;100.00;55571.53;5095035;28;20063;-71
2023/05/10 00:42:17;;;;;;;23.33;14.32;;;;;;;-140.66;100.00;55571.53;5096294;28;20106;-72
2023/05/10 00:45:03;;;;;;;25.15;14.43;;;;;;;-140.66;100.00;55571.53;5096953;28;20585;-73
2023/05/10 00:47:49;;;;;;;20.98;13.98;;;;;;;-140.66;100.00;55571.53;5096853;28;20032;-71
2023/05/10 00:50:35;;;;;;;18.88;13.93;;;;;;;-140.66;100.00;55571.53;5095805;28;20032;-71
2023/05/10 00:53:21;;;;;;;24.45;14.70;;;;;;;-140.66;100.00;55571.53;5096540;28;20028;-71
2023/05/10 00:56:07;;;;;;;24.58;15.07;;;;;;;-140.66;100.00;55571.53;5095815;28;20032;-72
2023/05/10 00:58:53;;;;;;;24.30;15.63;;;;;;;-140.66;100.00;55571.53;5096564;28;20051;-71
2023/05/10 01:01:39;;;;;;;26.83;16.30;;;;;;;-140.66;100.00;55571.53;5096080;28;20032;-72
2023/05/10 01:04:28;;;;;;;27.17;16.85;;;;;;;-140.66;100.00;55571.53;5095449;28;20024;-72
2023/05/10 01:07:13;;;;;;;23.02;15.55;;;;;;;-140.66;100.00;55571.53;5095488;28;20360;-70
2023/05/10 01:10:00;;;;;;;22.25;15.45;;;;;;;-140.66;100.00;55571.53;5094318;28;20039;-71
2023/05/10 01:12:47;;;;;;;21.92;14.82;;;;;;;-140.66;100.00;55571.53;5095293;28;20114;-71
2023/05/10 01:15:33;;;;;;;22.10;14.13;;;;;;;-140.66;100.00;55571.53;5081402;28;20088;-72
2023/05/10 01:18:21;;;;;;;21.25;15.00;;;;;;;-140.66;100.00;55571.53;5094947;28;20032;-72
2023/05/10 01:21:35;;;;;;;21.40;14.27;;;;;;;-140.66;100.00;55571.53;5095357;28;20088;-72
2023/05/10 01:24:39;;;;;;;20.55;15.52;;;;;;;-140.66;100.00;55571.53;5094814;28;20119;-72
2023/05/10 01:27:51;;;;;;;21.50;14.57;;;;;;;-140.66;100.00;55571.53;5079759;28;20028;-72
2023/05/10 01:31:01;;;;;;;19.42;13.43;;;;;;;-140.66;100.00;55571.53;5095199;28;20052;-72
2023/05/10 01:34:07;;;;;;;18.65;13.40;;;;;;;-140.66;100.00;55571.53;5081088;28;20399;-71
2023/05/10 01:37:05;;;;;;;21.85;13.88;;;;;;;-140.66;100.00;55571.53;5079384;28;20032;-72
2023/05/10 01:40:13;;;;;;;18.83;13.80;;;;;;;-140.66;100.00;55571.53;5095403;28;20456;-71
2023/05/10 01:43:07;;;;;;;21.98;14.27;;;;;;;-140.66;100.00;55571.53;5094494;28;20038;-71
2023/05/10 01:46:10;;;;;;;23.10;14.52;;;;;;;-140.66;100.00;55571.53;5094656;28;20062;-71
2023/05/10 01:48:58;;;;;;;21.30;14.77;;;;;;;-140.66;100.00;55571.53;5094616;28;20031;-72
2023/05/10 01:51:51;;;;;;;21.58;13.55;;;;;;;-140.66;100.00;55571.53;5095711;28;20036;-72
2023/05/10 01:54:44;;;;;;;20.38;14.93;;;;;;;-140.66;100.00;55571.53;5080802;28;20111;-71
2023/05/10 01:57:35;;;;;;;19.58;13.57;;;;;;;-140.66;100.00;55571.53;5074473;28;20035;-71
2023/05/10 02:00:23;;;;;;;20.13;14.23;;;;;;;-140.66;100.00;55571.53;5096122;28;20028;-71
2023/05/10 02:03:11;;;;;;;20.80;14.63;;;;;;;-140.66;100.00;55571.53;5080372;28;20123;-71
2023/05/10 02:05:57;;;;;;;20.40;14.23;;;;;;;-140.66;100.00;55571.53;5093397;28;20054;-72
2023/05/10 02:08:45;;;;;;;22.65;14.70;;;;;;;-140.66;100.00;55571.53;5095009;28;20024;-71
2023/05/10 02:11:32;;;;;;;21.33;15.00;;;;;;;-140.66;100.00;55571.53;5089265;28;20024;-70
2023/05/10 02:14:20;;;;;;;22.77;14.07;;;;;;;-140.66;100.00;55571.53;5094754;28;20024;-71
2023/05/10 02:17:07;;;;;;;18.90;14.10;;;;;;;-140.66;100.00;55571.53;5095161;28;20445;-73
2023/05/10 02:19:55;;;;;;;20.20;14.40;;;;;;;-140.66;100.00;55571.53;5093030;28;20063;-71
2023/05/10 02:22:42;;;;;;;21.42;14.65;;;;;;;-140.66;100.00;55571.53;5080252;28;20034;-72
2023/05/10 02:25:31;;;;;;;22.23;14.52;;;;;;;-140.66;100.00;55571.53;5094334;28;20036;-72
2023/05/10 02:28:18;;;;;;;20.98;14.20;;;;;;;-140.66;100.00;55571.53;5079824;28;20056;-72
2023/05/10 02:31:05;;;;;;;20.00;14.07;;;;;;;-140.66;100.00;55571.53;5093614;28;20069;-71
2023/05/10 02:33:52;;;;;;;20.08;14.73;;;;;;;-140.66;100.00;55571.53;5094919;28;20463;-71
2023/05/10 02:36:40;;;;;;;20.55;14.45;;;;;;;-140.66;100.00;55571.53;5094188;28;20039;-72
2023/05/10 02:39:28;;;;;;;24.08;14.93;;;;;;;-140.66;100.00;55571.53;5088575;28;20024;-71
2023/05/10 02:42:18;;;;;;;26.35;17.23;;;;;;;-140.66;100.00;55571.53;5094660;28;20032;-71
2023/05/10 02:45:10;;;;;;;24.77;15.70;;;;;;;-140.66;100.00;55571.53;5079928;28;20051;-71
2023/05/10 02:47:56;;;;;;;23.23;15.10;;;;;;;-140.66;100.00;55571.53;5078978;28;20023;-71
2023/05/10 02:50:51;;;;;;;25.17;14.98;;;;;;;-140.66;100.00;55571.53;5094048;28;20039;-71
2023/05/10 02:53:40;;;;;;;26.48;16.35;;;;;;;-140.66;100.00;55571.53;5093415;28;20058;-71
2023/05/10 02:56:33;;;;;;;24.67;16.00;;;;;;;-140.66;100.00;55571.53;5094325;28;20367;-71
2023/05/10 02:59:18;;;;;;;24.88;16.33;;;;;;;-140.66;100.00;55571.53;5080600;28;20430;-72
2023/05/10 03:02:05;;;;;;;25.05;16.15;;;;;;;-140.66;100.00;55571.53;5094932;28;20107;-72
2023/05/10 03:04:50;;;;;;;28.23;15.85;;;;;;;-140.66;100.00;55571.53;5094038;28;20109;-71
2023/05/10 03:07:37;;;;;;;23.65;15.02;;;;;;;-140.66;100.00;55571.53;5093477;28;20025;-70
2023/05/10 03:10:28;;;;;;;19.35;13.30;;;;;;;-140.66;100.00;55571.53;5078674;28;20056;-71
2023/05/10 03:13:35;;;;;;;24.25;15.10;;;;;;;-140.66;100.00;55571.53;5094208;28;20028;-72
2023/05/10 03:16:34;;;;;;;22.42;14.15;;;;;;;-140.66;100.00;55571.53;5094222;28;20089;-71
2023/05/10 03:19:30;;;;;;;20.42;14.18;;;;;;;-140.66;100.00;55571.53;5097746;28;20111;-71
2023/05/10 03:22:23;;;;;;;19.23;13.65;;;;;;;-140.66;100.00;55571.53;5097340;28;20078;-71
2023/05/10 03:25:11;;;;;;;20.20;13.68;;;;;;;-140.66;100.00;55571.53;5097994;28;20074;-71
2023/05/10 03:27:57;;;;;;;21.25;13.55;;;;;;;-140.66;100.00;55571.53;5097605;28;20047;-71
2023/05/10 03:30:44;;;;;;;18.05;13.23;;;;;;;-140.66;100.00;55571.53;5083813;28;20034;-72
2023/05/10 03:33:30;;;;;;;19.58;14.02;;;;;;;-140.66;100.00;55571.53;5098460;28;20047;-72
2023/05/10 03:36:16;;;;;;;20.60;13.73;;;;;;;-140.66;100.00;55571.53;5081536;28;20107;-71
2023/05/10 03:39:02;;;;;;;19.23;13.45;;;;;;;-140.66;100.00;55571.53;5097720;28;20028;-71
2023/05/10 03:41:48;;;;;;;20.55;13.90;;;;;;;-140.66;100.00;55571.53;5097252;28;20028;-69
2023/05/10 03:44:34;;;;;;;21.15;14.02;;;;;;;-140.66;100.00;55571.53;5098191;28;20032;-71
2023/05/10 03:47:19;;;;;;;22.80;14.77;;;;;;;-140.66;100.00;55571.53;5097224;28;20031;-70
2023/05/10 03:50:06;;;;;;;21.75;15.18;;;;;;;-140.66;100.00;55571.53;5095781;28;20039;-71
2023/05/10 03:52:52;;;;;;;21.77;15.02;;;;;;;-140.66;100.00;55571.53;5097034;28;20031;-70
2023/05/10 03:55:37;;;;;;;22.75;14.05;;;;;;;-140.66;100.00;55571.53;5097809;28;20089;-71
2023/05/10 03:58:23;;;;;;;24.45;14.18;;;;;;;-140.66;100.00;55571.53;5097752;28;20064;-71
2023/05/10 04:01:09;;;;;;;22.13;15.02;;;;;;;-140.66;100.00;55571.53;5097959;28;20496;-72
2023/05/10 04:03:55;;;;;;;19.45;14.18;;;;;;;-140.66;100.00;55571.53;5097399;28;20367;-71
2023/05/10 04:06:41;;;;;;;22.98;14.70;;;;;;;-140.66;100.00;55571.53;5082147;28;20028;-71
2023/05/10 04:09:26;;;;;;;25.40;14.82;;;;;;;-140.66;100.00;55571.53;5097449;28;20020;-72
2023/05/10 04:12:12;;;;;;;21.50;14.57;;;;;;;-140.66;100.00;55571.53;5097333;28;20027;-71
2023/05/10 04:14:58;;;;;;;25.63;15.25;;;;;;;-140.66;100.00;55571.53;5096668;28;20078;-71
2023/05/10 04:17:44;;;;;;;24.90;15.32;;;;;;;-140.66;100.00;55571.53;5097003;28;20050;-71
2023/05/10 04:20:32;;;;;;;24.08;15.10;;;;;;;-140.66;100.00;55571.53;5097336;28;20067;-71
2023/05/10 04:23:17;;;;;;;19.77;13.48;;;;;;;-140.66;100.00;55571.53;5096533;28;20074;-71
2023/05/10 04:26:03;;;;;;;21.48;14.52;;;;;;;-140.66;100.00;55571.53;5097065;28;20028;-74
2023/05/10 04:28:49;;;;;;;22.95;14.65;;;;;;;-140.66;100.00;55571.53;5080846;28;20506;-72
2023/05/10 04:31:36;;;;;;;23.15;14.57;;;;;;;-140.66;100.00;55571.53;5097238;28;20335;-72
2023/05/10 04:34:21;;;;;;;26.75;15.18;;;;;;;-140.66;100.00;55571.53;5095765;28;20123;-72
2023/05/10 04:37:07;;;;;;;22.52;13.73;;;;;;;-140.66;100.00;55571.53;5096725;28;20019;-73
2023/05/10 04:39:53;;;;;;;23.63;14.32;;;;;;;-140.66;100.00;55571.53;5096573;28;20031;-72
2023/05/10 04:42:41;;;;;;;22.17;15.32;;;;;;;-140.66;100.00;55571.53;5096234;28;20028;-72
2023/05/10 04:45:26;;;;;;;23.98;15.77;;;;;;;-140.66;100.00;55571.53;5096516;28;20032;-72
2023/05/10 04:48:12;;;;;;;22.38;15.43;;;;;;;-140.66;100.00;55571.53;5096660;28;20034;-72
2023/05/10 04:50:58;;;;;;;20.63;14.55;;;;;;;-140.66;100.00;55571.53;5081044;28;20439;-72
2023/05/10 04:53:44;;;;;;;23.45;14.90;;;;;;;-140.66;100.00;55571.53;5081786;28;20035;-73
2023/05/10 04:56:30;;;;;;;24.67;15.43;;;;;;;-140.66;100.00;55571.53;5082403;28;20032;-72
2023/05/10 04:59:16;;;;;;;23.10;15.25;;;;;;;-140.66;100.00;55571.53;5096831;28;20452;-71
2023/05/10 05:02:01;;;;;;;27.63;15.68;;;;;;;-140.66;100.00;55571.53;5080244;28;20115;-73
2023/05/10 05:04:47;;;;;;;23.20;14.73;;;;;;;-140.66;100.00;55571.53;5081548;28;20082;-73
2023/05/10 05:07:33;;;;;;;27.98;18.45;;;;;;;-140.66;100.00;55571.53;5094393;28;20055;-71
2023/05/10 05:10:19;;;;;;;31.48;18.88;;;;;;;-140.66;100.00;55571.53;5094884;28;20114;-73
2023/05/10 05:13:05;;;;;;;30.70;20.10;;;;;;;-140.66;100.00;55571.53;5096427;28;20036;-73
2023/05/10 05:15:50;;;;;;;38.38;20.40;;;;;;;-140.66;100.00;55571.53;5095104;28;20035;-71
2023/05/10 05:18:36;;;;;;;31.70;20.27;;;;;;;-140.66;100.00;55571.53;5094111;28;20035;-71
2023/05/10 05:21:23;;;;;;;36.50;21.92;;;;;;;-140.66;100.00;55571.53;5095753;28;20060;-72
2023/05/10 05:24:10;;;;;;;34.95;21.52;;;;;;;-140.66;100.00;55571.53;5094930;28;20035;-72
2023/05/10 05:26:55;;;;;;;39.85;21.27;;;;;;;-140.66;100.00;55571.53;5095374;28;20345;-73
2023/05/10 05:29:41;;;;;;;39.17;21.33;;;;;;;-140.66;100.00;55571.53;5094768;28;20071;-72
2023/05/10 05:32:27;;;;;;;34.92;19.90;;;;;;;-140.66;100.00;55571.53;5095464;28;20523;-70
2023/05/10 05:35:13;;;;;;;27.45;18.83;;;;;;;-140.66;100.00;55571.53;5095517;28;20509;-68
2023/05/10 05:37:58;;;;;;;34.67;18.73;;;;;;;-140.66;100.00;55571.53;5095441;28;20507;-68
2023/05/10 05:40:45;;;;;;;26.90;18.25;;;;;;;-140.66;100.00;55571.53;5094570;28;20097;-68
2023/05/10 05:43:31;;;;;;;29.52;19.42;;;;;;;-140.66;100.00;55571.53;5094104;28;20086;-67
2023/05/10 05:46:17;;;;;;;30.80;18.73;;;;;;;-140.66;100.00;55571.53;5094566;28;20338;-68
2023/05/10 05:49:02;;;;;;;31.00;18.67;;;;;;;-140.66;100.00;55571.53;5093526;28;20016;-68
2023/05/10 05:51:50;;;;;;;33.60;19.45;;;;;;;-140.66;100.00;55571.53;5095900;28;20031;-67
2023/05/10 05:54:38;;;;;;;33.17;18.55;;;;;;;-140.66;100.00;55571.53;5095048;28;20027;-69
2023/05/10 05:57:24;;;;;;;31.02;19.13;;;;;;;-140.66;100.00;55571.53;5094921;28;20036;-67
2023/05/10 06:00:10;;;;;;;30.98;19.63;;;;;;;-140.66;100.00;55571.53;5079881;28;20028;-68
2023/05/10 06:02:56;;;;;;;44.08;20.42;;;;;;;-140.66;100.00;55571.53;5095274;28;20049;-69
2023/05/10 06:05:42;;;;;;;30.80;19.05;;;;;;;-140.66;100.00;55571.53;5093831;28;20028;-69
2023/05/10 06:08:28;;;;;;;30.30;19.33;;;;;;;-140.66;100.00;55571.53;5095810;28;20459;-67
2023/05/10 06:11:14;;;;;;;31.08;19.70;;;;;;;-140.66;100.00;55571.53;5094459;28;20046;-66
2023/05/10 06:14:00;;;;;;;30.55;19.35;;;;;;;-140.66;100.00;55571.53;5094372;28;20094;-69
2023/05/10 06:16:46;;;;;;;31.65;20.33;;;;;;;-140.66;100.00;55571.53;5095135;28;20082;-68
2023/05/10 06:19:32;;;;;;;28.38;19.05;;;;;;;-140.66;100.00;55571.53;5094598;28;20023;-69
2023/05/10 06:22:17;;;;;;;34.95;19.20;;;;;;;-140.66;100.00;55571.53;5093405;28;20039;-68
2023/05/10 06:25:03;;;;;;;27.67;18.48;;;;;;;-140.66;100.00;55571.53;5094850;28;20024;-70
2023/05/10 06:27:49;;;;;;;29.75;17.77;;;;;;;-140.66;100.00;55571.53;5094433;28;20055;-68
2023/05/10 06:30:36;;;;;;;27.05;17.75;;;;;;;-140.66;100.00;55571.53;5094375;28;20035;-69
2023/05/10 06:33:22;;;;;;;27.58;17.55;;;;;;;-140.66;100.00;55571.53;5079486;28;20424;-70
2023/05/10 06:36:07;;;;;;;34.75;19.38;;;;;;;-140.66;100.00;55571.53;5094467;28;20103;-69
2023/05/10 06:38:53;;;;;;;32.05;19.65;;;;;;;-140.66;100.00;55571.53;5095175;28;20056;-68
2023/05/10 06:41:39;;;;;;;34.47;18.38;;;;;;;-140.66;100.00;55571.53;5093902;28;20082;-68
2023/05/10 06:44:25;;;;;;;27.00;17.90;;;;;;;-140.66;100.00;55571.53;5094641;28;20028;-68
2023/05/10 06:47:11;;;;;;;26.70;16.00;;;;;;;-140.66;100.00;55571.53;5093307;28;20111;-69
2023/05/10 06:49:56;;;;;;;36.97;17.00;;;;;;;-140.66;100.00;55571.53;5094583;28;20368;-68
2023/05/10 06:52:42;;;;;;;27.67;16.23;;;;;;;-140.66;100.00;55571.53;5097897;28;20020;-67
2023/05/10 06:55:29;;;;;;;33.38;18.00;;;;;;;-140.66;100.00;55571.53;5097504;28;20027;-68
2023/05/10 06:58:14;;;;;;;29.23;17.60;;;;;;;-140.66;100.00;55571.53;5082426;28;20048;-69
2023/05/10 07:01:04;;;;;;;24.65;15.40;;;;;;;-140.66;100.00;55571.53;5097540;28;20038;-70
2023/05/10 07:03:50;;;;;;;29.73;17.00;;;;;;;-140.66;100.00;55571.53;5098312;28;20108;-70
2023/05/10 07:06:36;;;;;;;25.50;15.38;;;;;;;-140.66;100.00;55571.53;5098287;28;20024;-68
2023/05/10 07:09:24;;;;;;;29.10;16.50;;;;;;;-140.66;100.00;55571.53;5097719;28;20460;-69
2023/05/10 07:12:09;;;;;;;22.85;14.98;;;;;;;-140.66;100.00;55571.53;5097885;28;20035;-70
2023/05/10 07:14:55;;;;;;;29.05;14.10;;;;;;;-140.66;100.00;55571.53;5097784;28;20368;-69
2023/05/10 07:17:41;;;;;;;21.75;12.43;;;;;;;-140.66;100.00;55571.53;5097551;28;20032;-69
2023/05/10 07:20:27;;;;;;;22.48;12.55;;;;;;;-140.66;100.00;55571.53;5083648;28;20039;-68
2023/05/10 07:23:13;;;;;;;20.33;12.18;;;;;;;-140.66;100.00;55571.53;5096349;28;20024;-69
2023/05/10 07:25:59;;;;;;;19.88;12.35;;;;;;;-140.66;100.00;55571.53;5097652;28;20051;-68
2023/05/10 07:28:45;;;;;;;27.17;13.18;;;;;;;-140.66;100.00;55571.53;5082238;28;20423;-68
2023/05/10 07:31:31;;;;;;;23.83;11.95;;;;;;;-140.66;100.00;55571.53;5097952;28;20062;-69
2023/05/10 07:34:16;;;;;;;21.42;12.13;;;;;;;-140.66;100.00;55571.53;5097218;28;20024;-70
2023/05/10 07:37:02;;;;;;;20.55;12.30;;;;;;;-140.66;100.00;55571.53;5083079;28;20467;-68
2023/05/10 07:39:48;;;;;;;24.75;12.70;;;;;;;-140.66;100.00;55571.53;5097163;28;20028;-68
2023/05/10 07:42:34;;;;;;;18.67;11.25;;;;;;;-140.66;100.00;55571.53;5097809;28;20024;-69
2023/05/10 07:45:19;;;;;;;21.92;11.57;;;;;;;-140.66;100.00;55571.53;5096954;28;20023;-69
2023/05/10 07:48:05;;;;;;;17.73;9.52;;;;;;;-140.66;100.00;55571.53;5097053;28;20016;-69
2023/05/10 07:50:51;;;;;;;19.10;8.93;;;;;;;-140.66;100.00;55571.53;5097461;28;20040;-68
2023/05/10 07:53:38;;;;;;;15.23;9.20;;;;;;;-140.66;100.00;55571.53;5097108;28;20122;-69
2023/05/10 07:56:27;;;;;;;12.35;8.00;;;;;;;-140.66;100.00;55571.53;5096688;28;20035;-69
2023/05/10 07:59:17;;;;;;;14.00;8.10;;;;;;;-140.66;100.00;55571.53;5097256;28;20039;-69
2023/05/10 08:02:02;;;;;;;13.55;7.78;;;;;;;-140.66;100.00;55571.53;5082583;28;20024;-69
2023/05/10 08:04:48;;;;;;;17.38;7.15;;;;;;;-140.66;100.00;55571.53;5086250;28;20527;-73
2023/05/10 08:07:34;;;;;;;12.55;7.28;;;;;;;-140.66;100.00;55571.53;5061372;28;20375;-73
2023/05/10 08:10:20;;;;;;;14.13;7.35;;;;;;;-140.66;100.00;55571.53;5064688;28;20350;-72
2023/05/10 08:13:06;;;;;;;20.20;7.57;;;;;;;-140.66;100.00;55571.53;5067909;28;20119;-73
2023/05/10 08:15:52;;;;;;;18.77;8.60;;;;;;;-140.66;100.00;55571.53;5074761;28;20024;-73
2023/05/10 08:18:39;;;;;;;14.85;8.52;;;;;;;-140.66;100.00;55571.53;5088552;28;20036;-73
2023/05/10 08:21:26;;;;;;;12.10;8.23;;;;;;;-140.66;100.00;55571.53;5086073;28;20436;-73
2023/05/10 08:24:11;;;;;;;14.07;8.57;;;;;;;-140.66;100.00;55571.53;5073626;28;20441;-73
2023/05/10 08:26:57;;;;;;;12.75;9.15;;;;;;;-140.66;100.00;55571.53;5087744;28;20028;-72
2023/05/10 08:29:43;;;;;;;11.27;7.97;;;;;;;-140.66;100.00;55571.53;5088917;28;20040;-72
2023/05/10 08:32:28;;;;;;;10.63;6.82;;;;;;;-140.66;100.00;55571.53;5076912;28;20036;-73
2023/05/10 08:35:15;;;;;;;8.57;5.43;;;;;;;-140.66;100.00;55571.53;5077906;28;20054;-72
2023/05/10 08:38:01;;;;;;;7.45;4.25;;;;;;;-140.66;100.00;55571.53;5088034;28;20055;-72
2023/05/10 08:40:50;;;;;;;13.05;4.30;;;;;;;-140.66;100.00;55571.53;5071063;28;20038;-72
2023/05/10 08:43:37;;;;;;;4.78;3.42;;;;;;;-140.66;100.00;55571.53;5072927;28;20034;-72
2023/05/10 08:46:23;;;;;;;10.85;3.95;;;;;;;-140.66;100.00;55571.53;5086846;28;20058;-72
2023/05/10 08:50:11;;;;;;;6.30;3.42;;;;;;;-140.66;100.00;55571.53;5087108;28;20404;-73
2023/05/10 08:53:57;;;;;;;8.95;3.50;;;;;;;-140.66;100.00;55571.53;5088820;28;20047;-72
2023/05/10 08:57:00;;;;;;;7.28;3.22;;;;;;;-140.66;100.00;55571.53;5074512;28;20491;-73
2023/05/10 08:59:47;;;;;;;9.00;2.80;;;;;;;-140.66;100.00;55571.53;5087252;28;20040;-72
2023/05/10 09:02:33;;;;;;;14.23;3.65;;;;;;;-140.66;100.00;55571.53;5085934;28;20034;-73
2023/05/10 09:05:19;;;;;;;7.82;2.95;;;;;;;-140.66;100.00;55571.53;5087805;28;20467;-74
2023/05/10 09:08:06;;;;;;;11.02;3.20;;;;;;;-140.66;100.00;55571.53;5088235;28;20477;-74
2023/05/10 09:10:54;;;;;;;8.52;3.13;;;;;;;-140.66;100.00;55571.53;5085180;28;20334;-73
2023/05/10 09:13:41;;;;;;;9.65;3.13;;;;;;;-140.66;100.00;55571.53;5072566;28;20063;-73
2023/05/10 09:16:27;;;;;;;6.32;2.97;;;;;;;-140.66;100.00;55571.53;5073674;28;20604;-73
2023/05/10 09:19:14;;;;;;;8.27;3.00;;;;;;;-140.66;100.00;55571.53;5087672;28;20115;-73
2023/05/10 09:22:05;;;;;;;7.30;2.95;;;;;;;-140.66;100.00;55571.53;5084862;28;20370;-72
2023/05/10 09:25:23;;;;;;;6.43;3.00;;;;;;;-140.66;100.00;55571.53;5063779;28;20025;-73
2023/05/10 09:28:11;;;;;;;9.00;2.88;;;;;;;-140.66;100.00;55571.53;5038085;28;20144;-73
2023/05/10 09:30:56;;;;;;;7.38;3.22;;;;;;;-140.66;100.00;55571.53;5074787;28;20051;-73
2023/05/10 09:33:46;;;;;;;7.18;3.22;;;;;;;-140.66;100.00;55571.53;5087068;28;20032;-74
2023/05/10 09:36:32;;;;;;;10.70;3.20;;;;;;;-140.66;100.00;55571.53;5086576;28;20070;-73
2023/05/10 09:39:18;;;;;;;7.18;3.17;;;;;;;-140.66;100.00;55571.53;5086576;28;20038;-73
2023/05/10 09:42:06;;;;;;;7.25;3.25;;;;;;;-140.66;100.00;55571.53;5085403;28;20364;-73
2023/05/10 09:44:52;;;;;;;4.55;2.90;;;;;;;-140.66;100.00;55571.53;5086856;28;20391;-73
2023/05/10 09:47:38;;;;;;;5.95;3.40;;;;;;;-140.66;100.00;55571.53;5088501;28;20035;-73
2023/05/10 09:50:24;;;;;;;3.90;3.00;;;;;;;-140.66;100.00;55571.53;5084720;28;20074;-73
2023/05/10 09:53:15;;;;;;;6.85;3.03;;;;;;;-140.66;100.00;55571.53;5086853;28;20432;-73
2023/05/10 09:56:01;;;;;;;12.85;3.17;;;;;;;-140.66;100.00;55571.53;5086486;28;20024;-74
2023/05/10 09:59:02;;;;;;;7.30;3.20;;;;;;;-140.66;100.00;55571.53;5070384;28;20024;-73
2023/05/10 10:01:58;;;;;;;8.13;3.42;;;;;;;-140.66;100.00;55571.53;5082627;28;20043;-72
2023/05/10 10:04:43;;;;;;;8.60;3.30;;;;;;;-140.66;100.00;55571.53;5086487;28;20409;-73
2023/05/10 10:07:29;;;;;;;5.75;3.33;;;;;;;-140.66;100.00;55571.53;5071745;28;20024;-73
2023/05/10 10:10:15;;;;;;;4.90;3.15;;;;;;;-140.66;100.00;55571.53;5070689;28;20072;-73
2023/05/10 10:13:02;;;;;;;9.35;3.28;;;;;;;-140.66;100.00;55571.53;5070530;28;20050;-73
2023/05/10 10:15:50;;;;;;;6.47;3.45;;;;;;;-140.66;100.00;55571.53;5086564;28;20045;-73
2023/05/10 10:18:39;;;;;;;7.80;3.10;;;;;;;-140.66;100.00;55571.53;5084513;28;20174;-71
2023/05/10 10:21:25;;;;;;;7.13;3.10;;;;;;;-140.66;100.00;55571.53;5083977;28;20032;-71
2023/05/10 10:24:11;;;;;;;4.97;3.25;;;;;;;-140.66;100.00;55571.53;5070751;28;20464;-72
2023/05/10 10:27:07;;;;;;;6.10;3.00;;;;;;;-140.66;100.00;55571.53;5070202;28;20573;-72
2023/05/10 10:30:11;;;;;;;20.02;3.85;;;;;;;-140.66;100.00;55571.53;5085383;28;20047;-73
2023/05/10 10:33:02;;;;;;;8.15;3.42;;;;;;;-140.66;100.00;55571.53;5085158;28;20036;-72
2023/05/10 10:35:49;;;;;;;7.90;3.70;;;;;;;-140.66;100.00;55571.53;5085552;28;20016;-70
2023/05/10 10:38:59;;;;;;;7.20;3.67;;;;;;;-140.66;100.00;55571.53;5086318;28;20515;-73
2023/05/10 10:41:56;;;;;;;5.10;3.17;;;;;;;-140.66;100.00;55571.53;5081123;28;20032;-71
2023/05/10 10:44:44;;;;;;;6.25;2.58;;;;;;;-140.66;100.00;55571.53;5083459;28;20028;-71
2023/05/10 10:47:32;;;;;;;6.72;2.60;;;;;;;-140.66;100.00;55571.53;5086102;28;20103;-72
2023/05/10 10:50:21;;;;;;;10.13;3.47;;;;;;;-140.66;100.00;55571.53;5087133;28;20039;-76
2023/05/10 10:53:28;;;;;;;8.45;3.08;;;;;;;-140.66;100.00;55571.53;5077736;28;20020;-83
2023/05/10 10:56:15;;;;;;;6.53;2.75;;;;;;;-140.66;100.00;55571.53;5093868;28;20035;-85
2023/05/10 10:59:10;;;;;;;4.22;2.55;;;;;;;-140.66;100.00;55571.53;5092138;28;20032;-83
2023/05/10 11:02:07;;;;;;;12.00;3.13;;;;;;;-140.66;100.00;55571.53;5077301;28;20024;-84
2023/05/10 11:05:00;;;;;;;6.40;2.70;;;;;;;-140.66;100.00;55571.53;5092217;28;20020;-83
2023/05/10 11:08:00;;;;;;;8.45;2.97;;;;;;;-140.66;100.00;55571.53;5078694;28;20040;-83
2023/05/10 11:11:11;;;;;;;5.50;2.80;;;;;;;-140.66;100.00;55571.53;5079331;28;20316;-84
2023/05/10 11:14:12;;;;;;;8.13;3.03;;;;;;;-140.66;100.00;55571.53;5093033;28;20503;-85
2023/05/10 11:16:58;;;;;;;4.72;2.90;;;;;;;-140.66;100.00;55571.53;5092855;28;20024;-83
2023/05/10 11:20:06;;;;;;;6.25;2.85;;;;;;;-140.66;100.00;55571.53;5078456;28;20122;-84
2023/05/10 11:23:08;;;;;;;6.15;3.00;;;;;;;-140.66;100.00;55571.53;5077933;28;20020;-84
2023/05/10 11:25:54;;;;;;;9.23;3.08;;;;;;;-140.66;100.00;55571.53;5092409;28;20119;-84
2023/05/10 11:28:47;;;;;;;2.92;2.63;;;;;;;-140.66;100.00;55571.53;5092398;28;20082;-82
2023/05/10 11:31:35;;;;;;;4.60;2.53;;;;;;;-140.66;100.00;55571.53;5078858;28;20042;-83
2023/05/10 11:34:38;;;;;;;7.22;2.95;;;;;;;-140.66;100.00;55571.53;5092728;28;20031;-83
2023/05/10 11:37:27;;;;;;;5.72;3.40;;;;;;;-140.66;100.00;55571.53;5079047;28;20027;-83
2023/05/10 11:40:14;;;;;;;9.00;2.65;;;;;;;-140.66;100.00;55571.53;5096556;28;20024;-83
2023/05/10 11:43:00;;;;;;;11.13;2.58;;;;;;;-140.66;100.00;55571.53;5082497;28;20056;-82
2023/05/10 11:45:46;;;;;;;3.58;2.33;;;;;;;-140.66;100.00;55571.53;5082691;28;20027;-84
2023/05/10 11:48:32;;;;;;;3.88;2.20;;;;;;;-140.66;100.00;55571.53;5081514;28;20026;-83
2023/05/10 11:51:22;;;;;;;7.95;2.80;;;;;;;-140.66;100.00;55571.53;5095981;28;20356;-83
2023/05/10 11:54:10;;;;;;;3.40;2.40;;;;;;;-140.66;100.00;55571.53;5096453;28;20063;-83
2023/05/10 11:56:56;;;;;;;5.28;2.30;;;;;;;-140.66;100.00;55571.53;5096777;28;20028;-82
2023/05/10 11:59:42;;;;;;;5.85;2.83;;;;;;;-140.66;100.00;55571.53;5095807;28;20036;-82
2023/05/10 12:02:28;;;;;;;6.25;2.50;;;;;;;-140.66;100.00;55571.53;5081291;28;20028;-83
2023/05/10 12:05:14;;;;;;;6.97;3.17;;;;;;;-140.66;100.00;55571.53;5082395;28;20039;-81
2023/05/10 12:08:22;;;;;;;5.60;3.03;;;;;;;-140.66;100.00;55571.53;5096796;28;20021;-83
2023/05/10 12:11:12;;;;;;;4.53;2.60;;;;;;;-140.66;100.00;55571.53;5105827;28;20106;-83
2023/05/10 12:13:58;;;;;;;3.22;2.33;;;;;;;-140.66;100.00;55571.53;5101940;28;20051;-84
2023/05/10 12:16:59;;;;;;;;;;;;;;;;;;;;;
2023/05/10 12:19:47;;;;;;;4.65;2.42;;;;;;;-140.66;100.00;55571.53;5116249;28;20090;-75
2023/05/10 12:22:34;;;;;;;2.88;2.60;;;;;;;-140.66;100.00;55571.53;5130530;27;20031;-77
2023/05/10 12:25:22;;;;;;;7.05;2.65;;;;;;;-140.66;100.00;55571.53;5116451;28;20058;-84
2023/05/10 12:28:09;;;;;;;6.90;2.47;;;;;;;-140.66;100.00;55571.53;5116155;28;20047;-83
2023/05/10 12:31:15;;;;;;;11.15;2.80;;;;;;;-140.66;100.00;55571.53;5103336;28;20027;-83
2023/05/10 12:34:01;;;;;;;5.60;2.50;;;;;;;-140.66;100.00;55571.53;5102837;28;20106;-83
2023/05/10 12:36:59;;;;;;;7.43;2.33;;;;;;;-140.66;100.00;55571.53;5123399;28;20031;-84